createdAt,value
2019-05-26T00:02:10.162Z,87.00
2019-05-26T00:04:38.590Z,87.00
2019-05-26T00:07:07.000Z,87.10
2019-05-26T00:09:35.411Z,87.10
2019-05-26T00:12:03.968Z,87.10
2019-05-26T00:14:32.377Z,87.30
2019-05-26T00:17:00.792Z,87.60
2019-05-26T00:21:57.277Z,87.40
2019-05-26T00:24:25.698Z,87.30
2019-05-26T00:26:54.104Z,87.30
2019-05-26T00:29:22.522Z,87.40
2019-05-26T00:34:19.021Z,87.60
2019-05-26T00:36:47.421Z,87.70
2019-05-26T00:39:15.826Z,87.50
2019-05-26T00:41:44.250Z,87.70
2019-05-26T00:44:12.737Z,88.00
2019-05-26T00:46:41.144Z,87.60
2019-05-26T00:49:09.552Z,87.60
2019-05-26T00:51:38.021Z,87.60
2019-05-26T00:54:06.438Z,87.60
2019-05-26T00:56:34.877Z,87.40
2019-05-26T00:59:03.436Z,87.40
2019-05-26T01:04:00.016Z,87.40
2019-05-26T01:06:28.451Z,87.20
2019-05-26T01:08:56.918Z,87.50
2019-05-26T01:11:25.333Z,87.40
2019-05-26T01:13:53.746Z,87.30
2019-05-26T01:16:22.149Z,86.90
2019-05-26T01:18:50.550Z,87.00
2019-05-26T01:21:18.971Z,86.80
2019-05-26T01:23:47.377Z,86.70
2019-05-26T01:26:35.131Z,86.50
2019-05-26T01:29:03.605Z,86.30
2019-05-26T01:31:32.008Z,86.30
2019-05-26T01:36:29.020Z,86.20
2019-05-26T01:38:58.762Z,86.20
2019-05-26T01:41:27.181Z,86.50
2019-05-26T01:43:55.592Z,86.60
2019-05-26T01:46:24.001Z,86.60
2019-05-26T01:48:52.406Z,86.60
2019-05-26T01:51:20.817Z,86.20
2019-05-26T01:53:49.232Z,86.20
2019-05-26T01:56:17.665Z,86.20
2019-05-26T01:58:46.066Z,86.20
2019-05-26T02:01:14.480Z,86.20
2019-05-26T02:03:42.888Z,86.60
2019-05-26T02:06:11.301Z,86.50
2019-05-26T02:08:40.004Z,86.80
2019-05-26T02:11:08.632Z,86.70
2019-05-26T02:13:37.035Z,86.70
2019-05-26T02:16:05.591Z,86.70
2019-05-26T02:18:33.989Z,87.00
2019-05-26T02:21:02.415Z,87.00
2019-05-26T02:23:30.822Z,86.90
2019-05-26T02:25:59.306Z,87.10
2019-05-26T02:28:27.705Z,87.00
2019-05-26T02:30:56.114Z,86.90
2019-05-26T02:33:24.526Z,86.80
2019-05-26T02:35:52.932Z,86.70
2019-05-26T02:38:25.737Z,86.60
2019-05-26T02:40:51.456Z,86.80
2019-05-26T02:43:19.873Z,86.70
2019-05-26T02:48:16.363Z,86.80
2019-05-26T02:50:44.793Z,86.80
2019-05-26T02:53:13.218Z,86.90
2019-05-26T02:55:41.637Z,87.00
2019-05-26T02:58:10.046Z,86.80
2019-05-26T03:00:44.268Z,86.90
2019-05-26T03:03:13.892Z,86.90
2019-05-26T03:05:45.425Z,87.00
2019-05-26T03:08:15.380Z,87.10
2019-05-26T03:10:44.131Z,87.20
2019-05-26T03:13:16.891Z,86.80
2019-05-26T03:15:46.569Z,86.80
2019-05-26T03:18:15.927Z,86.80
2019-05-26T03:20:44.462Z,86.80
2019-05-26T03:23:14.586Z,87.00
2019-05-26T03:28:11.136Z,87.00
2019-05-26T03:30:39.545Z,87.10
2019-05-26T03:33:08.043Z,87.20
2019-05-26T03:35:36.508Z,87.30
2019-05-26T03:38:04.929Z,87.10
2019-05-26T03:40:33.321Z,87.10
2019-05-26T03:43:02.018Z,87.20
2019-05-26T03:45:42.213Z,86.90
2019-05-26T03:48:10.645Z,86.90
2019-05-26T03:53:07.204Z,86.90
2019-05-26T03:55:35.608Z,86.90
2019-05-26T03:58:04.080Z,86.70
2019-05-26T04:00:32.518Z,86.60
2019-05-26T04:03:00.944Z,86.60
2019-05-26T04:05:29.357Z,86.70
2019-05-26T04:07:57.765Z,86.70
2019-05-26T04:10:26.167Z,86.80
2019-05-26T04:15:22.659Z,86.80
2019-05-26T04:20:19.139Z,86.60
2019-05-26T04:22:47.558Z,86.70
2019-05-26T04:25:16.092Z,86.70
2019-05-26T04:37:56.175Z,86.30
2019-05-26T04:40:27.138Z,86.60
2019-05-26T04:42:54.739Z,86.60
2019-05-26T04:45:23.172Z,86.50
2019-05-26T04:47:51.567Z,86.50
2019-05-26T04:53:05.163Z,86.50
2019-05-26T04:55:18.179Z,86.30
2019-05-26T04:57:46.590Z,86.50
2019-05-26T05:00:16.610Z,86.30
2019-05-26T05:07:41.472Z,86.30
2019-05-26T05:17:37.530Z,86.30
2019-05-26T05:20:09.768Z,86.20
2019-05-26T05:22:38.177Z,86.20
2019-05-26T05:27:39.508Z,86.10
2019-05-26T05:30:09.054Z,86.10
2019-05-26T05:35:08.476Z,86.20
2019-05-26T05:37:36.918Z,86.20
2019-05-26T05:40:08.716Z,86.30
2019-05-26T05:42:37.302Z,86.10
2019-05-26T05:45:08.030Z,85.90
2019-05-26T05:47:36.512Z,85.90
2019-05-26T05:50:09.362Z,85.90
2019-05-26T05:52:37.776Z,85.90
2019-05-26T05:55:07.345Z,85.90
2019-05-26T05:57:35.826Z,85.90
2019-05-26T06:02:34.341Z,85.90
2019-05-26T06:05:03.358Z,85.90
2019-05-26T06:07:31.758Z,85.80
2019-05-26T06:10:00.188Z,85.70
2019-05-26T06:12:28.644Z,85.60
2019-05-26T06:17:25.152Z,85.70
2019-05-26T06:24:49.762Z,85.20
2019-05-26T06:29:58.369Z,84.80
2019-05-26T06:32:17.984Z,84.80
2019-05-26T06:34:46.457Z,84.80
2019-05-26T06:47:10.628Z,83.90
2019-05-26T06:49:39.059Z,83.70
2019-05-26T06:54:35.546Z,83.20
2019-05-26T06:59:32.047Z,82.60
2019-05-26T07:04:28.534Z,81.80
2019-05-26T07:11:59.113Z,80.90
2019-05-26T07:14:23.201Z,80.60
2019-05-26T07:16:51.682Z,80.90
2019-05-26T07:19:20.087Z,80.60
2019-05-26T07:21:48.513Z,80.20
2019-05-26T07:24:16.926Z,80.00
2019-05-26T07:26:45.337Z,79.60
2019-05-26T07:31:41.829Z,79.50
2019-05-26T07:36:38.321Z,79.20
2019-05-26T07:41:36.313Z,79.20
2019-05-26T07:44:05.386Z,79.40
2019-05-26T07:46:33.804Z,79.40
2019-05-26T07:49:02.281Z,79.20
2019-05-26T07:53:58.837Z,79.10
2019-05-26T07:56:27.261Z,78.80
2019-05-26T07:58:55.660Z,78.70
2019-05-26T08:01:24.585Z,78.40
2019-05-26T08:03:53.171Z,78.40
2019-05-26T08:06:21.583Z,78.00
2019-05-26T08:08:49.984Z,77.50
2019-05-26T08:11:18.393Z,77.50
2019-05-26T08:16:14.875Z,77.10
2019-05-26T08:26:07.628Z,75.40
2019-05-26T08:28:36.080Z,75.70
2019-05-26T08:31:04.552Z,75.80
2019-05-26T08:36:01.013Z,75.20
2019-05-26T08:38:29.430Z,75.10
2019-05-26T08:40:57.825Z,74.80
2019-05-26T08:43:26.889Z,74.70
2019-05-26T08:48:23.395Z,73.10
2019-05-26T08:55:48.010Z,72.60
2019-05-26T08:58:16.444Z,71.60
2019-05-26T09:00:44.855Z,73.10
2019-05-26T09:03:13.339Z,73.80
2019-05-26T09:05:41.760Z,73.40
2019-05-26T09:08:10.164Z,73.40
2019-05-26T09:13:06.656Z,72.40
2019-05-26T09:18:03.304Z,71.20
2019-05-26T09:20:31.693Z,70.60
2019-05-26T09:23:00.108Z,67.70
2019-05-26T09:25:28.520Z,68.50
2019-05-26T09:30:25.054Z,64.50
2019-05-26T09:32:53.473Z,65.30
2019-05-26T09:37:49.962Z,63.50
2019-05-26T09:40:18.416Z,64.20
2019-05-26T09:42:46.828Z,63.90
2019-05-26T09:45:34.636Z,64.40
2019-05-26T09:48:10.635Z,65.60
2019-05-26T09:50:39.043Z,65.70
2019-05-26T09:53:07.486Z,64.50
2019-05-26T09:55:35.884Z,65.30
2019-05-26T09:58:04.365Z,67.10
2019-05-26T10:00:32.765Z,67.40
2019-05-26T10:03:01.178Z,67.30
2019-05-26T10:07:57.668Z,67.40
2019-05-26T10:12:54.163Z,65.70
2019-05-26T10:15:22.635Z,65.70
2019-05-26T10:17:51.055Z,64.90
2019-05-26T10:22:47.540Z,65.40
2019-05-26T10:25:16.014Z,65.30
2019-05-26T10:27:44.406Z,64.60
2019-05-26T10:30:14.365Z,63.20
2019-05-26T10:32:42.773Z,64.60
2019-05-26T10:37:39.325Z,63.00
2019-05-26T10:40:08.889Z,62.50
2019-05-26T10:42:37.284Z,65.10
2019-05-26T10:45:07.734Z,65.50
2019-05-26T10:52:33.825Z,64.30
2019-05-26T10:55:02.246Z,64.60
2019-05-26T10:57:30.663Z,65.30
2019-05-26T10:59:59.196Z,65.80
2019-05-26T11:02:27.604Z,65.70
2019-05-26T11:04:56.013Z,65.60
2019-05-26T11:09:54.222Z,66.70
2019-05-26T11:14:50.713Z,65.50
2019-05-26T11:17:19.120Z,65.80
2019-05-26T11:19:47.521Z,64.60
2019-05-26T11:22:15.917Z,66.80
2019-05-26T11:24:44.334Z,66.60
2019-05-26T11:27:14.129Z,65.90
2019-05-26T11:29:43.041Z,66.20
2019-05-26T11:32:11.465Z,65.80
2019-05-26T11:34:39.881Z,64.80
2019-05-26T11:37:08.267Z,66.90
2019-05-26T11:42:13.315Z,66.70
2019-05-26T11:44:35.192Z,66.10
2019-05-26T11:49:31.720Z,65.40
2019-05-26T11:52:00.109Z,66.30
2019-05-26T11:54:28.534Z,67.00
2019-05-26T11:56:56.934Z,67.70
2019-05-26T11:59:25.343Z,67.60
2019-05-26T12:01:54.021Z,67.70
2019-05-26T12:04:22.449Z,67.70
2019-05-26T12:06:50.843Z,68.10
2019-05-26T12:14:15.412Z,68.20
2019-05-26T12:16:43.816Z,66.70
2019-05-26T12:19:12.232Z,67.20
2019-05-26T12:21:40.636Z,67.40
2019-05-26T12:24:09.065Z,66.30
2019-05-26T12:26:37.460Z,66.80
2019-05-26T12:29:05.875Z,66.10
2019-05-26T12:34:02.369Z,67.10
2019-05-26T12:36:30.769Z,67.70
2019-05-26T12:38:59.205Z,67.80
2019-05-26T12:41:27.608Z,67.30
2019-05-26T12:43:56.020Z,67.40
2019-05-26T12:46:24.430Z,67.10
2019-05-26T12:48:52.840Z,67.80
2019-05-26T12:51:21.241Z,67.80
2019-05-26T12:53:49.656Z,66.30
2019-05-26T12:56:18.070Z,67.10
2019-05-26T12:58:46.468Z,67.00
2019-05-26T13:01:14.882Z,66.00
2019-05-26T13:03:43.285Z,66.90
2019-05-26T13:08:39.781Z,67.00
2019-05-26T13:11:08.198Z,66.60
2019-05-26T13:13:36.597Z,67.30
2019-05-26T13:16:05.642Z,65.50
2019-05-26T13:18:34.619Z,65.50
2019-05-26T13:21:03.098Z,65.70
2019-05-26T13:23:31.544Z,65.20
2019-05-26T13:25:59.952Z,65.20
2019-05-26T13:28:28.368Z,65.60
2019-05-26T13:30:58.016Z,65.80
2019-05-26T13:33:26.421Z,66.70
2019-05-26T13:35:54.844Z,67.10
2019-05-26T13:38:23.320Z,67.10
2019-05-26T13:40:51.734Z,67.00
2019-05-26T13:43:20.137Z,67.00
2019-05-26T13:45:48.544Z,67.50
2019-05-26T13:53:13.165Z,67.30
2019-05-26T13:58:09.654Z,68.10
2019-05-26T14:00:38.065Z,68.10
2019-05-26T14:03:06.478Z,68.50
2019-05-26T14:08:02.972Z,68.80
2019-05-26T14:13:00.540Z,68.50
2019-05-26T14:17:59.264Z,68.40
2019-05-26T14:20:37.001Z,68.50
2019-05-26T14:25:52.832Z,68.50
2019-05-26T14:28:21.238Z,69.70
2019-05-26T14:33:17.732Z,68.30
2019-05-26T14:38:14.752Z,67.40
2019-05-26T14:40:43.171Z,67.70
2019-05-26T14:45:52.403Z,66.30
2019-05-26T14:48:09.780Z,67.30
2019-05-26T14:50:40.622Z,65.80
2019-05-26T14:53:08.311Z,66.20
2019-05-26T14:55:36.789Z,66.50
2019-05-26T14:58:15.220Z,67.30
2019-05-26T15:00:35.801Z,66.90
2019-05-26T15:03:04.276Z,67.30
2019-05-26T15:05:32.677Z,66.90
2019-05-26T15:08:01.097Z,66.70
2019-05-26T15:10:29.496Z,67.20
2019-05-26T15:15:25.976Z,67.20
2019-05-26T15:17:54.407Z,67.70
2019-05-26T15:20:22.805Z,68.20
2019-05-26T15:22:51.226Z,68.00
2019-05-26T15:25:19.900Z,68.30
2019-05-26T15:27:48.305Z,68.40
2019-05-26T15:30:17.452Z,68.40
2019-05-26T15:32:45.873Z,68.20
2019-05-26T15:35:14.424Z,68.50
2019-05-26T15:37:42.832Z,69.10
2019-05-26T15:40:11.771Z,68.10
2019-05-26T15:42:40.183Z,67.70
2019-05-26T15:47:36.906Z,68.90
2019-05-26T15:52:36.435Z,68.30
2019-05-26T15:55:05.587Z,68.80
2019-05-26T15:57:33.994Z,69.20
2019-05-26T16:00:02.676Z,69.10
2019-05-26T16:02:31.088Z,68.70
2019-05-26T16:07:27.738Z,68.40
2019-05-26T16:09:56.148Z,68.40
2019-05-26T16:14:52.636Z,69.10
2019-05-26T16:19:49.197Z,69.40
2019-05-26T16:24:45.677Z,69.20
2019-05-26T16:27:19.227Z,69.40
2019-05-26T16:29:46.590Z,69.20
2019-05-26T16:37:10.496Z,69.20
2019-05-26T16:47:03.160Z,69.10
2019-05-26T16:49:31.570Z,69.20
2019-05-26T16:51:59.993Z,69.00
2019-05-26T16:54:29.180Z,69.00
2019-05-26T16:56:57.586Z,69.40
2019-05-26T16:59:26.009Z,69.10
2019-05-26T17:02:13.828Z,69.40
2019-05-26T17:04:42.388Z,69.10
2019-05-26T17:12:06.985Z,69.10
2019-05-26T17:17:14.330Z,68.70
2019-05-26T17:19:33.612Z,68.70
2019-05-26T17:22:02.027Z,69.10
2019-05-26T17:24:30.450Z,69.10
2019-05-26T17:34:23.088Z,69.80
2019-05-26T17:39:38.936Z,70.00
2019-05-26T17:42:07.457Z,69.60
2019-05-26T17:47:04.020Z,70.20
2019-05-26T17:52:00.509Z,70.20
2019-05-26T17:54:28.970Z,70.50
2019-05-26T17:56:57.376Z,70.90
2019-05-26T17:59:25.794Z,70.90
2019-05-26T18:01:54.207Z,71.10
2019-05-26T18:04:22.634Z,71.20
2019-05-26T18:06:51.028Z,71.60
2019-05-26T18:09:19.445Z,71.80
2019-05-26T18:11:47.860Z,71.70
2019-05-26T18:14:16.277Z,72.00
2019-05-26T18:16:44.677Z,71.90
2019-05-26T18:21:41.171Z,72.40
2019-05-26T18:26:37.667Z,72.70
2019-05-26T18:29:06.080Z,72.80
2019-05-26T18:34:02.586Z,73.10
2019-05-26T18:43:55.229Z,73.70
2019-05-26T18:48:51.733Z,73.70
2019-05-26T18:51:20.139Z,73.70
2019-05-26T18:53:48.548Z,73.80
2019-05-26T18:56:16.957Z,73.90
2019-05-26T18:58:45.361Z,74.00
2019-05-26T19:01:13.835Z,74.20
2019-05-26T19:03:42.261Z,74.30
2019-05-26T19:06:10.686Z,74.40
2019-05-26T19:11:07.173Z,74.50
2019-05-26T19:13:35.575Z,74.60
2019-05-26T19:16:04.216Z,74.60
2019-05-26T19:18:32.643Z,74.60
2019-05-26T19:21:01.068Z,74.60
2019-05-26T19:25:57.561Z,74.90
2019-05-26T19:30:54.041Z,75.10
2019-05-26T19:33:22.440Z,75.20
2019-05-26T19:35:50.849Z,75.30
2019-05-26T19:38:19.279Z,75.40
2019-05-26T19:41:07.089Z,75.40
2019-05-26T19:43:35.484Z,75.40
2019-05-26T19:46:03.901Z,75.40
2019-05-26T19:48:36.599Z,75.60
2019-05-26T19:51:02.457Z,75.70
2019-05-26T19:53:31.508Z,75.80
2019-05-26T19:55:59.923Z,75.90
2019-05-26T19:58:28.714Z,76.20
2019-05-26T20:00:57.435Z,76.30
2019-05-26T20:03:25.826Z,76.30
2019-05-26T20:05:54.237Z,76.60
2019-05-26T20:08:22.704Z,76.70
2019-05-26T20:10:51.108Z,76.70
2019-05-26T20:13:19.508Z,76.80
2019-05-26T20:18:35.507Z,77.10
2019-05-26T20:23:32.197Z,77.40
2019-05-26T20:26:00.605Z,77.30
2019-05-26T20:30:57.081Z,78.20
2019-05-26T20:35:53.570Z,78.00
2019-05-26T20:38:21.968Z,78.00
2019-05-26T20:43:18.520Z,78.00
2019-05-26T20:45:46.945Z,78.10
2019-05-26T20:48:15.353Z,78.70
2019-05-26T20:50:43.748Z,78.60
2019-05-26T20:53:12.253Z,78.80
2019-05-26T20:55:40.641Z,78.90
2019-05-26T20:58:09.055Z,79.50
2019-05-26T21:00:37.505Z,79.40
2019-05-26T21:03:05.964Z,79.40
2019-05-26T21:05:34.358Z,79.20
2019-05-26T21:08:02.783Z,79.10
2019-05-26T21:10:31.199Z,79.40
2019-05-26T21:12:59.604Z,79.20
2019-05-26T21:17:56.088Z,79.20
2019-05-26T21:22:52.595Z,79.20
2019-05-26T21:25:20.999Z,79.20
2019-05-26T21:27:49.412Z,79.20
2019-05-26T21:30:18.126Z,79.50
2019-05-26T21:32:46.640Z,79.50
2019-05-26T21:35:15.188Z,79.50
2019-05-26T21:37:43.615Z,79.20
2019-05-26T21:40:12.553Z,79.10
2019-05-26T21:42:40.961Z,79.10
2019-05-26T21:45:10.812Z,79.00
2019-05-26T21:47:39.290Z,79.10
2019-05-26T21:50:10.776Z,79.20
2019-05-26T21:52:39.184Z,79.20
2019-05-26T21:55:08.126Z,79.10
2019-05-26T21:57:36.541Z,79.10
2019-05-26T22:00:13.714Z,79.20
2019-05-26T22:05:10.865Z,79.60
2019-05-26T22:07:39.288Z,79.40
2019-05-26T22:10:08.520Z,79.40
2019-05-26T22:12:37.010Z,79.50
2019-05-26T22:15:07.860Z,79.70
2019-05-26T22:17:36.281Z,79.80
2019-05-26T22:20:06.420Z,79.80
2019-05-26T22:22:34.841Z,79.90
2019-05-26T22:25:04.410Z,80.10
2019-05-26T22:27:32.825Z,80.40
2019-05-26T22:30:01.233Z,81.10
2019-05-26T22:32:29.654Z,81.20
2019-05-26T22:34:58.065Z,81.00
2019-05-26T22:37:26.468Z,80.90
2019-05-26T22:39:54.881Z,80.80
2019-05-26T22:42:23.277Z,80.50
2019-05-26T22:44:51.689Z,80.80
2019-05-26T22:47:20.104Z,81.00
2019-05-26T22:52:17.839Z,81.00
2019-05-26T22:54:46.706Z,80.80
2019-05-26T22:57:15.158Z,80.80
2019-05-26T22:59:43.582Z,80.80
2019-05-26T23:04:40.048Z,80.40
2019-05-26T23:07:08.450Z,80.30
2019-05-26T23:09:36.868Z,80.60
2019-05-26T23:12:05.272Z,80.90
2019-05-26T23:14:33.677Z,80.90
2019-05-26T23:17:02.083Z,81.00
2019-05-26T23:19:30.502Z,80.90
2019-05-26T23:21:58.901Z,80.80
2019-05-26T23:24:27.309Z,81.60
2019-05-26T23:29:23.803Z,81.70
2019-05-26T23:31:52.203Z,82.00
2019-05-26T23:34:20.637Z,82.00
2019-05-26T23:36:49.036Z,82.00
2019-05-26T23:39:17.508Z,81.70
2019-05-26T23:41:45.967Z,81.60
2019-05-26T23:44:14.389Z,81.90
2019-05-26T23:46:42.797Z,82.00
2019-05-26T23:49:11.208Z,81.90
2019-05-26T23:51:39.610Z,81.40
2019-05-26T23:54:08.037Z,81.30
2019-05-26T23:56:36.439Z,81.10
